sensor_id;sensor_type;location;lat;lon;timestamp;P1;durP1;ratioP1;P2;durP2;ratioP2
22388;SDS011;11362;48.102;11.620;2022-10-19T00:01:35;11.00;;;7.17;;
22388;SDS011;11362;48.102;11.620;2022-10-19T00:04:01;8.57;;;5.93;;
22388;SDS011;11362;48.102;11.620;2022-10-19T00:06:27;9.13;;;7.03;;
22388;SDS011;11362;48.102;11.620;2022-10-19T00:08:56;6.80;;;5.57;;
22388;SDS011;11362;48.102;11.620;2022-10-19T00:11:24;10.10;;;7.10;;
22388;SDS011;11362;48.102;11.620;2022-10-19T00:13:51;11.43;;;7.23;;
22388;SDS011;11362;48.102;11.620;2022-10-19T00:16:17;7.37;;;6.50;;
22388;SDS011;11362;48.102;11.620;2022-10-19T00:18:43;8.13;;;6.17;;
22388;SDS011;11362;48.102;11.620;2022-10-19T00:21:10;11.57;;;6.70;;
22388;SDS011;11362;48.102;11.620;2022-10-19T00:23:41;9.90;;;6.43;;
22388;SDS011;11362;48.102;11.620;2022-10-19T00:26:07;8.23;;;6.70;;
22388;SDS011;11362;48.102;11.620;2022-10-19T00:28:33;9.30;;;6.13;;
22388;SDS011;11362;48.102;11.620;2022-10-19T00:31:03;7.40;;;5.73;;
22388;SDS011;11362;48.102;11.620;2022-10-19T00:33:29;10.43;;;6.33;;
22388;SDS011;11362;48.102;11.620;2022-10-19T00:35:55;8.33;;;5.90;;
22388;SDS011;11362;48.102;11.620;2022-10-19T00:38:20;8.57;;;5.97;;
22388;SDS011;11362;48.102;11.620;2022-10-19T00:40:46;9.23;;;6.17;;
22388;SDS011;11362;48.102;11.620;2022-10-19T00:43:13;9.90;;;6.30;;
22388;SDS011;11362;48.102;11.620;2022-10-19T00:45:44;7.07;;;5.30;;
22388;SDS011;11362;48.102;11.620;2022-10-19T00:48:10;9.37;;;6.20;;
22388;SDS011;11362;48.102;11.620;2022-10-19T00:50:39;9.10;;;6.07;;
22388;SDS011;11362;48.102;11.620;2022-10-19T00:53:05;6.57;;;5.77;;
22388;SDS011;11362;48.102;11.620;2022-10-19T00:55:30;9.50;;;6.43;;
22388;SDS011;11362;48.102;11.620;2022-10-19T00:57:57;10.97;;;6.10;;
22388;SDS011;11362;48.102;11.620;2022-10-19T01:00:22;8.37;;;5.33;;
22388;SDS011;11362;48.102;11.620;2022-10-19T01:02:47;8.07;;;5.60;;
22388;SDS011;11362;48.102;11.620;2022-10-19T01:05:13;7.07;;;5.57;;
22388;SDS011;11362;48.102;11.620;2022-10-19T01:07:38;7.10;;;5.77;;
22388;SDS011;11362;48.102;11.620;2022-10-19T01:10:04;7.40;;;6.07;;
22388;SDS011;11362;48.102;11.620;2022-10-19T01:15:25;6.43;;;5.10;;
22388;SDS011;11362;48.102;11.620;2022-10-19T01:28:55;7.07;;;5.23;;
22388;SDS011;11362;48.102;11.620;2022-10-19T01:31:46;9.37;;;5.83;;
22388;SDS011;11362;48.102;11.620;2022-10-19T01:34:18;8.50;;;5.87;;
22388;SDS011;11362;48.102;11.620;2022-10-19T01:36:53;6.13;;;5.53;;
22388;SDS011;11362;48.102;11.620;2022-10-19T01:39:41;6.73;;;5.40;;
22388;SDS011;11362;48.102;11.620;2022-10-19T01:42:23;7.87;;;5.13;;
22388;SDS011;11362;48.102;11.620;2022-10-19T01:47:32;6.50;;;4.97;;
22388;SDS011;11362;48.102;11.620;2022-10-19T01:50:09;9.00;;;4.87;;
22388;SDS011;11362;48.102;11.620;2022-10-19T01:52:39;5.17;;;4.63;;
22388;SDS011;11362;48.102;11.620;2022-10-19T01:55:06;6.67;;;5.43;;
22388;SDS011;11362;48.102;11.620;2022-10-19T01:57:36;6.30;;;4.97;;
22388;SDS011;11362;48.102;11.620;2022-10-19T02:00:06;5.90;;;4.73;;
22388;SDS011;11362;48.102;11.620;2022-10-19T02:02:36;7.37;;;5.07;;
22388;SDS011;11362;48.102;11.620;2022-10-19T02:05:06;6.93;;;4.93;;
22388;SDS011;11362;48.102;11.620;2022-10-19T02:07:34;6.30;;;4.50;;
22388;SDS011;11362;48.102;11.620;2022-10-19T02:10:03;5.13;;;4.30;;
22388;SDS011;11362;48.102;11.620;2022-10-19T02:12:28;6.07;;;4.67;;
22388;SDS011;11362;48.102;11.620;2022-10-19T02:14:57;6.60;;;4.87;;
22388;SDS011;11362;48.102;11.620;2022-10-19T02:17:27;8.00;;;4.43;;
22388;SDS011;11362;48.102;11.620;2022-10-19T02:19:56;5.93;;;4.93;;
22388;SDS011;11362;48.102;11.620;2022-10-19T02:22:23;5.23;;;4.57;;
22388;SDS011;11362;48.102;11.620;2022-10-19T02:24:49;7.47;;;4.57;;
22388;SDS011;11362;48.102;11.620;2022-10-19T02:27:14;4.77;;;4.27;;
22388;SDS011;11362;48.102;11.620;2022-10-19T02:29:40;5.57;;;4.57;;
22388;SDS011;11362;48.102;11.620;2022-10-19T02:32:06;4.77;;;4.27;;
22388;SDS011;11362;48.102;11.620;2022-10-19T02:34:31;5.30;;;4.50;;
22388;SDS011;11362;48.102;11.620;2022-10-19T02:36:57;5.30;;;4.57;;
22388;SDS011;11362;48.102;11.620;2022-10-19T02:39:23;5.67;;;4.17;;
22388;SDS011;11362;48.102;11.620;2022-10-19T02:41:57;5.17;;;4.33;;
22388;SDS011;11362;48.102;11.620;2022-10-19T02:44:41;4.53;;;4.03;;
22388;SDS011;11362;48.102;11.620;2022-10-19T02:49:47;6.57;;;4.37;;
22388;SDS011;11362;48.102;11.620;2022-10-19T02:52:13;4.50;;;4.10;;
22388;SDS011;11362;48.102;11.620;2022-10-19T02:54:39;5.03;;;4.00;;
22388;SDS011;11362;48.102;11.620;2022-10-19T02:57:17;4.87;;;4.37;;
22388;SDS011;11362;48.102;11.620;2022-10-19T02:59:46;4.50;;;4.10;;
22388;SDS011;11362;48.102;11.620;2022-10-19T03:02:12;6.50;;;4.60;;
22388;SDS011;11362;48.102;11.620;2022-10-19T03:04:38;4.43;;;4.03;;
22388;SDS011;11362;48.102;11.620;2022-10-19T03:07:03;4.97;;;4.00;;
22388;SDS011;11362;48.102;11.620;2022-10-19T03:09:29;4.30;;;3.73;;
22388;SDS011;11362;48.102;11.620;2022-10-19T03:11:54;3.80;;;3.43;;
22388;SDS011;11362;48.102;11.620;2022-10-19T03:14:20;5.30;;;4.00;;
22388;SDS011;11362;48.102;11.620;2022-10-19T03:16:46;5.83;;;4.27;;
22388;SDS011;11362;48.102;11.620;2022-10-19T03:19:11;5.30;;;3.77;;
22388;SDS011;11362;48.102;11.620;2022-10-19T03:21:36;4.40;;;3.90;;
22388;SDS011;11362;48.102;11.620;2022-10-19T03:24:02;4.27;;;3.87;;
22388;SDS011;11362;48.102;11.620;2022-10-19T03:26:27;7.30;;;4.23;;
22388;SDS011;11362;48.102;11.620;2022-10-19T03:28:52;4.40;;;4.00;;
22388;SDS011;11362;48.102;11.620;2022-10-19T03:31:18;4.63;;;3.83;;
22388;SDS011;11362;48.102;11.620;2022-10-19T03:33:43;4.30;;;3.90;;
22388;SDS011;11362;48.102;11.620;2022-10-19T03:36:22;4.90;;;4.40;;
22388;SDS011;11362;48.102;11.620;2022-10-19T03:38:50;4.53;;;4.07;;
22388;SDS011;11362;48.102;11.620;2022-10-19T03:41:17;4.17;;;3.10;;
22388;SDS011;11362;48.102;11.620;2022-10-19T03:43:42;4.43;;;3.90;;
22388;SDS011;11362;48.102;11.620;2022-10-19T03:46:08;4.03;;;3.53;;
22388;SDS011;11362;48.102;11.620;2022-10-19T03:48:33;4.67;;;3.50;;
22388;SDS011;11362;48.102;11.620;2022-10-19T03:51:00;4.53;;;3.80;;
22388;SDS011;11362;48.102;11.620;2022-10-19T03:53:27;4.70;;;3.80;;
22388;SDS011;11362;48.102;11.620;2022-10-19T03:55:58;4.57;;;3.60;;
22388;SDS011;11362;48.102;11.620;2022-10-19T03:58:28;4.13;;;3.77;;
22388;SDS011;11362;48.102;11.620;2022-10-19T04:00:56;4.37;;;3.97;;
22388;SDS011;11362;48.102;11.620;2022-10-19T04:03:21;4.53;;;3.93;;
22388;SDS011;11362;48.102;11.620;2022-10-19T04:05:46;4.23;;;3.83;;
22388;SDS011;11362;48.102;11.620;2022-10-19T04:08:12;4.97;;;3.97;;
22388;SDS011;11362;48.102;11.620;2022-10-19T04:10:37;4.33;;;3.80;;
22388;SDS011;11362;48.102;11.620;2022-10-19T04:13:02;4.50;;;3.63;;
22388;SDS011;11362;48.102;11.620;2022-10-19T04:15:28;4.37;;;3.97;;
22388;SDS011;11362;48.102;11.620;2022-10-19T04:17:53;3.83;;;3.53;;
22388;SDS011;11362;48.102;11.620;2022-10-19T04:20:18;4.07;;;3.53;;
22388;SDS011;11362;48.102;11.620;2022-10-19T04:22:43;3.80;;;3.50;;
22388;SDS011;11362;48.102;11.620;2022-10-19T04:25:09;4.50;;;3.53;;
22388;SDS011;11362;48.102;11.620;2022-10-19T04:27:34;5.17;;;3.93;;
22388;SDS011;11362;48.102;11.620;2022-10-19T04:29:59;3.87;;;3.53;;
22388;SDS011;11362;48.102;11.620;2022-10-19T04:32:25;3.73;;;3.40;;
22388;SDS011;11362;48.102;11.620;2022-10-19T04:34:50;4.13;;;3.77;;
22388;SDS011;11362;48.102;11.620;2022-10-19T04:37:15;3.40;;;3.10;;
22388;SDS011;11362;48.102;11.620;2022-10-19T04:39:40;3.80;;;3.50;;
22388;SDS011;11362;48.102;11.620;2022-10-19T04:42:06;3.43;;;3.13;;
22388;SDS011;11362;48.102;11.620;2022-10-19T04:44:31;3.67;;;3.37;;
22388;SDS011;11362;48.102;11.620;2022-10-19T04:46:56;3.43;;;3.17;;
22388;SDS011;11362;48.102;11.620;2022-10-19T04:49:21;3.93;;;3.27;;
22388;SDS011;11362;48.102;11.620;2022-10-19T04:51:47;5.60;;;3.50;;
22388;SDS011;11362;48.102;11.620;2022-10-19T04:54:12;3.60;;;3.30;;
22388;SDS011;11362;48.102;11.620;2022-10-19T04:56:38;10.47;;;3.60;;
22388;SDS011;11362;48.102;11.620;2022-10-19T04:59:03;7.70;;;3.37;;
22388;SDS011;11362;48.102;11.620;2022-10-19T05:01:29;10.80;;;3.57;;
22388;SDS011;11362;48.102;11.620;2022-10-19T05:03:56;11.80;;;3.90;;
22388;SDS011;11362;48.102;11.620;2022-10-19T05:06:23;9.57;;;4.40;;
22388;SDS011;11362;48.102;11.620;2022-10-19T05:08:48;16.13;;;3.13;;
22388;SDS011;11362;48.102;11.620;2022-10-19T05:11:14;14.67;;;3.50;;
22388;SDS011;11362;48.102;11.620;2022-10-19T05:13:40;16.50;;;3.80;;
22388;SDS011;11362;48.102;11.620;2022-10-19T05:16:08;17.87;;;3.90;;
22388;SDS011;11362;48.102;11.620;2022-10-19T05:18:36;11.40;;;3.70;;
22388;SDS011;11362;48.102;11.620;2022-10-19T05:21:05;7.63;;;3.30;;
22388;SDS011;11362;48.102;11.620;2022-10-19T05:23:32;10.57;;;3.77;;
22388;SDS011;11362;48.102;11.620;2022-10-19T05:26:02;11.30;;;3.27;;
22388;SDS011;11362;48.102;11.620;2022-10-19T05:28:32;10.20;;;3.93;;
22388;SDS011;11362;48.102;11.620;2022-10-19T05:31:05;12.00;;;3.37;;
22388;SDS011;11362;48.102;11.620;2022-10-19T05:33:36;8.00;;;3.53;;
22388;SDS011;11362;48.102;11.620;2022-10-19T05:38:53;12.43;;;3.57;;
22388;SDS011;11362;48.102;11.620;2022-10-19T05:41:20;7.07;;;3.40;;
22388;SDS011;11362;48.102;11.620;2022-10-19T05:43:50;15.43;;;3.93;;
22388;SDS011;11362;48.102;11.620;2022-10-19T05:46:17;7.50;;;3.80;;
22388;SDS011;11362;48.102;11.620;2022-10-19T05:48:43;8.93;;;3.50;;
22388;SDS011;11362;48.102;11.620;2022-10-19T05:51:09;6.63;;;3.30;;
22388;SDS011;11362;48.102;11.620;2022-10-19T05:53:36;12.53;;;4.13;;
22388;SDS011;11362;48.102;11.620;2022-10-19T05:56:03;7.77;;;3.33;;
22388;SDS011;11362;48.102;11.620;2022-10-19T05:58:29;8.93;;;4.47;;
22388;SDS011;11362;48.102;11.620;2022-10-19T06:00:54;11.67;;;3.33;;
22388;SDS011;11362;48.102;11.620;2022-10-19T06:03:22;9.97;;;3.73;;
22388;SDS011;11362;48.102;11.620;2022-10-19T06:05:48;12.63;;;3.90;;
22388;SDS011;11362;48.102;11.620;2022-10-19T06:08:15;21.57;;;4.83;;
22388;SDS011;11362;48.102;11.620;2022-10-19T06:10:41;28.83;;;5.73;;
22388;SDS011;11362;48.102;11.620;2022-10-19T06:13:07;23.77;;;5.03;;
22388;SDS011;11362;48.102;11.620;2022-10-19T06:15:34;17.60;;;4.37;;
22388;SDS011;11362;48.102;11.620;2022-10-19T06:18:00;18.33;;;8.50;;
22388;SDS011;11362;48.102;11.620;2022-10-19T06:20:28;17.10;;;9.17;;
22388;SDS011;11362;48.102;11.620;2022-10-19T06:22:53;16.17;;;10.37;;
22388;SDS011;11362;48.102;11.620;2022-10-19T06:25:19;16.17;;;10.70;;
22388;SDS011;11362;48.102;11.620;2022-10-19T06:27:44;17.00;;;10.43;;
22388;SDS011;11362;48.102;11.620;2022-10-19T06:30:09;20.77;;;11.23;;
22388;SDS011;11362;48.102;11.620;2022-10-19T06:32:35;14.43;;;10.73;;
22388;SDS011;11362;48.102;11.620;2022-10-19T06:35:00;15.10;;;8.13;;
22388;SDS011;11362;48.102;11.620;2022-10-19T06:37:26;10.93;;;7.57;;
22388;SDS011;11362;48.102;11.620;2022-10-19T06:39:51;7.13;;;6.37;;
22388;SDS011;11362;48.102;11.620;2022-10-19T06:42:16;11.97;;;6.90;;
22388;SDS011;11362;48.102;11.620;2022-10-19T06:44:41;7.70;;;6.67;;
22388;SDS011;11362;48.102;11.620;2022-10-19T06:47:07;7.80;;;6.70;;
22388;SDS011;11362;48.102;11.620;2022-10-19T06:49:32;11.70;;;5.40;;
22388;SDS011;11362;48.102;11.620;2022-10-19T06:51:57;11.57;;;6.20;;
22388;SDS011;11362;48.102;11.620;2022-10-19T06:54:22;8.00;;;6.67;;
22388;SDS011;11362;48.102;11.620;2022-10-19T06:56:48;9.43;;;5.60;;
22388;SDS011;11362;48.102;11.620;2022-10-19T06:59:13;7.03;;;5.17;;
22388;SDS011;11362;48.102;11.620;2022-10-19T07:01:38;9.53;;;5.77;;
22388;SDS011;11362;48.102;11.620;2022-10-19T07:04:04;9.83;;;5.33;;
22388;SDS011;11362;48.102;11.620;2022-10-19T07:06:29;7.90;;;4.93;;
22388;SDS011;11362;48.102;11.620;2022-10-19T07:08:54;9.37;;;5.50;;
22388;SDS011;11362;48.102;11.620;2022-10-19T07:11:20;7.20;;;5.60;;
22388;SDS011;11362;48.102;11.620;2022-10-19T07:13:45;6.30;;;5.17;;
22388;SDS011;11362;48.102;11.620;2022-10-19T07:16:15;8.23;;;5.07;;
22388;SDS011;11362;48.102;11.620;2022-10-19T07:18:42;10.43;;;5.30;;
22388;SDS011;11362;48.102;11.620;2022-10-19T07:21:08;8.30;;;4.83;;
22388;SDS011;11362;48.102;11.620;2022-10-19T07:23:35;10.37;;;4.97;;
22388;SDS011;11362;48.102;11.620;2022-10-19T07:26:03;7.40;;;5.10;;
22388;SDS011;11362;48.102;11.620;2022-10-19T07:28:32;5.43;;;4.83;;
22388;SDS011;11362;48.102;11.620;2022-10-19T07:30:58;7.20;;;4.93;;
22388;SDS011;11362;48.102;11.620;2022-10-19T07:33:29;6.73;;;4.70;;
22388;SDS011;11362;48.102;11.620;2022-10-19T07:35:57;6.10;;;4.80;;
22388;SDS011;11362;48.102;11.620;2022-10-19T07:38:24;8.90;;;4.57;;
22388;SDS011;11362;48.102;11.620;2022-10-19T07:40:49;8.87;;;4.60;;
22388;SDS011;11362;48.102;11.620;2022-10-19T07:43:14;7.40;;;4.37;;
22388;SDS011;11362;48.102;11.620;2022-10-19T07:45:40;4.70;;;4.23;;
22388;SDS011;11362;48.102;11.620;2022-10-19T07:48:05;5.80;;;4.63;;
22388;SDS011;11362;48.102;11.620;2022-10-19T07:50:30;7.17;;;4.60;;
22388;SDS011;11362;48.102;11.620;2022-10-19T07:52:56;7.53;;;4.90;;
22388;SDS011;11362;48.102;11.620;2022-10-19T07:55:21;7.00;;;4.97;;
22388;SDS011;11362;48.102;11.620;2022-10-19T07:57:47;7.17;;;4.50;;
22388;SDS011;11362;48.102;11.620;2022-10-19T08:00:13;8.63;;;5.03;;
22388;SDS011;11362;48.102;11.620;2022-10-19T08:02:39;10.23;;;4.33;;
22388;SDS011;11362;48.102;11.620;2022-10-19T08:05:05;10.37;;;4.67;;
22388;SDS011;11362;48.102;11.620;2022-10-19T08:07:33;7.63;;;4.77;;
22388;SDS011;11362;48.102;11.620;2022-10-19T08:09:59;7.67;;;4.33;;
22388;SDS011;11362;48.102;11.620;2022-10-19T08:12:24;10.07;;;4.97;;
22388;SDS011;11362;48.102;11.620;2022-10-19T08:14:49;5.73;;;4.13;;
22388;SDS011;11362;48.102;11.620;2022-10-19T08:17:15;7.57;;;4.57;;
22388;SDS011;11362;48.102;11.620;2022-10-19T08:19:40;5.93;;;4.27;;
22388;SDS011;11362;48.102;11.620;2022-10-19T08:22:05;4.37;;;3.97;;
22388;SDS011;11362;48.102;11.620;2022-10-19T08:24:30;9.57;;;5.27;;
22388;SDS011;11362;48.102;11.620;2022-10-19T08:26:56;7.73;;;4.70;;
22388;SDS011;11362;48.102;11.620;2022-10-19T08:29:21;8.63;;;4.23;;
22388;SDS011;11362;48.102;11.620;2022-10-19T08:31:47;8.40;;;4.53;;
22388;SDS011;11362;48.102;11.620;2022-10-19T08:34:13;10.00;;;4.70;;
22388;SDS011;11362;48.102;11.620;2022-10-19T08:36:39;8.20;;;4.30;;
22388;SDS011;11362;48.102;11.620;2022-10-19T08:39:05;6.33;;;4.10;;
22388;SDS011;11362;48.102;11.620;2022-10-19T08:49:22;8.67;;;4.40;;
22388;SDS011;11362;48.102;11.620;2022-10-19T08:51:55;5.23;;;4.47;;
22388;SDS011;11362;48.102;11.620;2022-10-19T08:54:23;7.30;;;4.53;;
22388;SDS011;11362;48.102;11.620;2022-10-19T08:59:48;4.17;;;3.67;;
22388;SDS011;11362;48.102;11.620;2022-10-19T09:02:44;9.23;;;4.50;;
22388;SDS011;11362;48.102;11.620;2022-10-19T09:07:59;9.30;;;4.60;;
22388;SDS011;11362;48.102;11.620;2022-10-19T09:10:25;7.87;;;5.00;;
22388;SDS011;11362;48.102;11.620;2022-10-19T09:13:04;10.37;;;4.90;;
22388;SDS011;11362;48.102;11.620;2022-10-19T09:15:45;8.30;;;4.87;;
22388;SDS011;11362;48.102;11.620;2022-10-19T09:18:13;8.80;;;4.93;;
22388;SDS011;11362;48.102;11.620;2022-10-19T09:20:46;6.37;;;4.43;;
22388;SDS011;11362;48.102;11.620;2022-10-19T09:26:09;8.93;;;4.20;;
22388;SDS011;11362;48.102;11.620;2022-10-19T09:31:17;15.20;;;4.93;;
22388;SDS011;11362;48.102;11.620;2022-10-19T09:33:48;7.50;;;5.00;;
22388;SDS011;11362;48.102;11.620;2022-10-19T09:36:18;7.87;;;4.63;;
22388;SDS011;11362;48.102;11.620;2022-10-19T09:38:44;7.50;;;4.33;;
22388;SDS011;11362;48.102;11.620;2022-10-19T09:41:16;10.33;;;4.60;;
22388;SDS011;11362;48.102;11.620;2022-10-19T09:43:44;7.80;;;4.53;;
22388;SDS011;11362;48.102;11.620;2022-10-19T09:46:16;6.20;;;4.43;;
22388;SDS011;11362;48.102;11.620;2022-10-19T09:48:51;15.67;;;4.87;;
22388;SDS011;11362;48.102;11.620;2022-10-19T09:51:17;10.97;;;4.80;;
22388;SDS011;11362;48.102;11.620;2022-10-19T09:53:44;9.43;;;4.73;;
22388;SDS011;11362;48.102;11.620;2022-10-19T09:56:16;7.67;;;4.43;;
22388;SDS011;11362;48.102;11.620;2022-10-19T09:58:52;7.20;;;4.67;;
22388;SDS011;11362;48.102;11.620;2022-10-19T10:01:29;8.83;;;4.43;;
22388;SDS011;11362;48.102;11.620;2022-10-19T10:04:03;8.97;;;3.70;;
22388;SDS011;11362;48.102;11.620;2022-10-19T10:06:29;9.80;;;4.53;;
22388;SDS011;11362;48.102;11.620;2022-10-19T10:08:55;17.50;;;5.57;;
22388;SDS011;11362;48.102;11.620;2022-10-19T10:11:25;13.60;;;5.73;;
22388;SDS011;11362;48.102;11.620;2022-10-19T10:13:53;11.47;;;4.40;;
22388;SDS011;11362;48.102;11.620;2022-10-19T10:16:22;9.67;;;5.10;;
22388;SDS011;11362;48.102;11.620;2022-10-19T10:18:55;8.10;;;4.50;;
22388;SDS011;11362;48.102;11.620;2022-10-19T10:21:25;11.97;;;5.10;;
22388;SDS011;11362;48.102;11.620;2022-10-19T10:26:41;12.73;;;5.00;;
22388;SDS011;11362;48.102;11.620;2022-10-19T10:29:24;10.40;;;4.37;;
22388;SDS011;11362;48.102;11.620;2022-10-19T10:32:01;7.37;;;4.33;;
22388;SDS011;11362;48.102;11.620;2022-10-19T10:39:51;8.07;;;4.37;;
22388;SDS011;11362;48.102;11.620;2022-10-19T10:42:19;10.27;;;3.90;;
22388;SDS011;11362;48.102;11.620;2022-10-19T10:44:50;6.40;;;4.50;;
22388;SDS011;11362;48.102;11.620;2022-10-19T10:47:17;9.70;;;4.23;;
22388;SDS011;11362;48.102;11.620;2022-10-19T10:49:43;8.37;;;5.00;;
22388;SDS011;11362;48.102;11.620;2022-10-19T10:52:19;11.97;;;4.43;;
22388;SDS011;11362;48.102;11.620;2022-10-19T10:55:01;10.70;;;4.53;;
22388;SDS011;11362;48.102;11.620;2022-10-19T10:57:48;8.90;;;4.50;;
22388;SDS011;11362;48.102;11.620;2022-10-19T11:00:19;16.63;;;5.50;;
22388;SDS011;11362;48.102;11.620;2022-10-19T11:02:47;11.90;;;5.30;;
22388;SDS011;11362;48.102;11.620;2022-10-19T11:05:18;12.17;;;5.20;;
22388;SDS011;11362;48.102;11.620;2022-10-19T11:08:13;12.33;;;4.70;;
22388;SDS011;11362;48.102;11.620;2022-10-19T11:10:44;10.03;;;4.23;;
22388;SDS011;11362;48.102;11.620;2022-10-19T11:13:26;8.10;;;4.60;;
22388;SDS011;11362;48.102;11.620;2022-10-19T11:16:03;11.07;;;5.10;;
22388;SDS011;11362;48.102;11.620;2022-10-19T11:18:38;10.33;;;5.13;;
22388;SDS011;11362;48.102;11.620;2022-10-19T11:21:21;13.60;;;5.07;;
22388;SDS011;11362;48.102;11.620;2022-10-19T11:24:02;9.60;;;4.77;;
22388;SDS011;11362;48.102;11.620;2022-10-19T11:29:24;9.10;;;5.07;;
22388;SDS011;11362;48.102;11.620;2022-10-19T11:31:59;8.57;;;3.87;;
22388;SDS011;11362;48.102;11.620;2022-10-19T11:38:32;10.40;;;5.00;;
22388;SDS011;11362;48.102;11.620;2022-10-19T11:40:53;7.50;;;4.80;;
22388;SDS011;11362;48.102;11.620;2022-10-19T11:52:15;10.03;;;4.07;;
22388;SDS011;11362;48.102;11.620;2022-10-19T11:54:52;10.60;;;4.83;;
22388;SDS011;11362;48.102;11.620;2022-10-19T12:06:04;9.20;;;4.73;;
22388;SDS011;11362;48.102;11.620;2022-10-19T12:08:54;8.53;;;5.33;;
22388;SDS011;11362;48.102;11.620;2022-10-19T12:11:27;6.30;;;4.00;;
22388;SDS011;11362;48.102;11.620;2022-10-19T12:14:14;9.40;;;4.87;;
22388;SDS011;11362;48.102;11.620;2022-10-19T12:16:45;10.77;;;4.47;;
22388;SDS011;11362;48.102;11.620;2022-10-19T12:19:18;9.93;;;4.87;;
22388;SDS011;11362;48.102;11.620;2022-10-19T12:21:46;13.67;;;4.77;;
22388;SDS011;11362;48.102;11.620;2022-10-19T12:24:14;12.93;;;4.67;;
22388;SDS011;11362;48.102;11.620;2022-10-19T12:26:44;12.00;;;4.07;;
22388;SDS011;11362;48.102;11.620;2022-10-19T12:29:12;8.73;;;4.50;;
22388;SDS011;11362;48.102;11.620;2022-10-19T12:31:41;8.80;;;5.33;;
22388;SDS011;11362;48.102;11.620;2022-10-19T12:42:23;7.93;;;4.80;;
22388;SDS011;11362;48.102;11.620;2022-10-19T12:45:04;6.67;;;4.07;;
22388;SDS011;11362;48.102;11.620;2022-10-19T12:47:38;11.33;;;4.30;;
22388;SDS011;11362;48.102;11.620;2022-10-19T12:50:03;7.33;;;4.13;;
22388;SDS011;11362;48.102;11.620;2022-10-19T12:52:36;6.83;;;3.60;;
22388;SDS011;11362;48.102;11.620;2022-10-19T12:55:11;6.67;;;4.13;;
22388;SDS011;11362;48.102;11.620;2022-10-19T12:57:54;6.97;;;3.73;;
22388;SDS011;11362;48.102;11.620;2022-10-19T13:00:24;7.93;;;4.07;;
22388;SDS011;11362;48.102;11.620;2022-10-19T13:03:19;6.47;;;3.93;;
22388;SDS011;11362;48.102;11.620;2022-10-19T13:05:54;7.30;;;3.83;;
22388;SDS011;11362;48.102;11.620;2022-10-19T13:08:29;4.70;;;3.70;;
22388;SDS011;11362;48.102;11.620;2022-10-19T13:11:04;4.70;;;3.63;;
22388;SDS011;11362;48.102;11.620;2022-10-19T13:21:41;8.07;;;3.40;;
22388;SDS011;11362;48.102;11.620;2022-10-19T13:24:18;4.43;;;3.20;;
22388;SDS011;11362;48.102;11.620;2022-10-19T13:29:26;6.57;;;3.47;;
22388;SDS011;11362;48.102;11.620;2022-10-19T13:40:37;7.07;;;2.90;;
22388;SDS011;11362;48.102;11.620;2022-10-19T13:43:21;4.20;;;3.80;;
22388;SDS011;11362;48.102;11.620;2022-10-19T13:48:56;5.00;;;3.37;;
22388;SDS011;11362;48.102;11.620;2022-10-19T13:51:44;3.37;;;3.07;;
22388;SDS011;11362;48.102;11.620;2022-10-19T14:02:45;4.10;;;3.13;;
22388;SDS011;11362;48.102;11.620;2022-10-19T14:12:42;7.97;;;3.67;;
22388;SDS011;11362;48.102;11.620;2022-10-19T14:15:18;3.67;;;3.33;;
22388;SDS011;11362;48.102;11.620;2022-10-19T14:17:46;5.60;;;3.00;;
22388;SDS011;11362;48.102;11.620;2022-10-19T14:20:25;3.23;;;2.93;;
22388;SDS011;11362;48.102;11.620;2022-10-19T14:22:54;3.30;;;3.00;;
22388;SDS011;11362;48.102;11.620;2022-10-19T14:25:24;3.17;;;2.83;;
22388;SDS011;11362;48.102;11.620;2022-10-19T14:27:53;4.03;;;2.97;;
22388;SDS011;11362;48.102;11.620;2022-10-19T14:30:25;3.77;;;3.00;;
22388;SDS011;11362;48.102;11.620;2022-10-19T14:32:52;6.10;;;3.53;;
22388;SDS011;11362;48.102;11.620;2022-10-19T14:35:20;3.30;;;3.00;;
22388;SDS011;11362;48.102;11.620;2022-10-19T14:37:48;3.90;;;3.50;;
22388;SDS011;11362;48.102;11.620;2022-10-19T14:42:46;3.13;;;2.83;;
22388;SDS011;11362;48.102;11.620;2022-10-19T14:45:16;3.93;;;3.00;;
22388;SDS011;11362;48.102;11.620;2022-10-19T14:47:50;3.17;;;2.97;;
22388;SDS011;11362;48.102;11.620;2022-10-19T14:50:23;3.57;;;3.27;;
22388;SDS011;11362;48.102;11.620;2022-10-19T14:52:57;3.30;;;3.00;;
22388;SDS011;11362;48.102;11.620;2022-10-19T14:55:33;3.13;;;2.87;;
22388;SDS011;11362;48.102;11.620;2022-10-19T14:58:02;2.77;;;2.57;;
22388;SDS011;11362;48.102;11.620;2022-10-19T15:00:34;4.80;;;2.70;;
22388;SDS011;11362;48.102;11.620;2022-10-19T15:03:00;2.87;;;2.67;;
22388;SDS011;11362;48.102;11.620;2022-10-19T15:05:30;4.47;;;2.70;;
22388;SDS011;11362;48.102;11.620;2022-10-19T15:08:08;4.27;;;2.67;;
22388;SDS011;11362;48.102;11.620;2022-10-19T15:10:42;3.20;;;2.70;;
22388;SDS011;11362;48.102;11.620;2022-10-19T15:13:15;3.23;;;2.90;;
22388;SDS011;11362;48.102;11.620;2022-10-19T15:15:49;3.00;;;2.80;;
22388;SDS011;11362;48.102;11.620;2022-10-19T15:18:15;3.13;;;2.60;;
22388;SDS011;11362;48.102;11.620;2022-10-19T15:20:41;3.33;;;3.03;;
22388;SDS011;11362;48.102;11.620;2022-10-19T15:26:12;3.17;;;2.93;;
22388;SDS011;11362;48.102;11.620;2022-10-19T15:28:43;7.20;;;3.03;;
22388;SDS011;11362;48.102;11.620;2022-10-19T15:31:16;3.50;;;2.63;;
22388;SDS011;11362;48.102;11.620;2022-10-19T15:33:53;3.17;;;2.90;;
22388;SDS011;11362;48.102;11.620;2022-10-19T15:36:20;3.67;;;2.80;;
22388;SDS011;11362;48.102;11.620;2022-10-19T15:41:29;35.30;;;15.53;;
22388;SDS011;11362;48.102;11.620;2022-10-19T15:43:57;38.87;;;17.33;;
22388;SDS011;11362;48.102;11.620;2022-10-19T15:46:27;24.73;;;11.73;;
22388;SDS011;11362;48.102;11.620;2022-10-19T15:48:56;25.97;;;9.80;;
22388;SDS011;11362;48.102;11.620;2022-10-19T15:53:50;17.23;;;8.83;;
22388;SDS011;11362;48.102;11.620;2022-10-19T15:56:17;22.13;;;9.20;;
22388;SDS011;11362;48.102;11.620;2022-10-19T15:58:43;23.00;;;8.50;;
22388;SDS011;11362;48.102;11.620;2022-10-19T16:01:15;17.73;;;7.37;;
22388;SDS011;11362;48.102;11.620;2022-10-19T16:03:42;24.90;;;9.90;;
22388;SDS011;11362;48.102;11.620;2022-10-19T16:06:07;236.23;;;125.23;;
22388;SDS011;11362;48.102;11.620;2022-10-19T16:08:33;314.13;;;169.00;;
22388;SDS011;11362;48.102;11.620;2022-10-19T16:10:58;269.73;;;150.40;;
22388;SDS011;11362;48.102;11.620;2022-10-19T16:13:23;223.13;;;120.77;;
22388;SDS011;11362;48.102;11.620;2022-10-19T16:15:49;201.70;;;112.50;;
22388;SDS011;11362;48.102;11.620;2022-10-19T16:18:14;183.20;;;99.40;;
22388;SDS011;11362;48.102;11.620;2022-10-19T16:20:40;165.60;;;93.73;;
22388;SDS011;11362;48.102;11.620;2022-10-19T16:23:06;162.60;;;93.50;;
22388;SDS011;11362;48.102;11.620;2022-10-19T16:25:31;79.80;;;43.17;;
22388;SDS011;11362;48.102;11.620;2022-10-19T16:27:57;93.77;;;49.47;;
22388;SDS011;11362;48.102;11.620;2022-10-19T16:30:22;96.67;;;50.57;;
22388;SDS011;11362;48.102;11.620;2022-10-19T16:32:47;91.13;;;48.50;;
22388;SDS011;11362;48.102;11.620;2022-10-19T16:35:12;89.57;;;47.03;;
22388;SDS011;11362;48.102;11.620;2022-10-19T16:37:38;78.63;;;44.37;;
22388;SDS011;11362;48.102;11.620;2022-10-19T16:40:03;84.60;;;44.03;;
22388;SDS011;11362;48.102;11.620;2022-10-19T16:42:29;85.03;;;42.00;;
22388;SDS011;11362;48.102;11.620;2022-10-19T16:44:54;79.93;;;43.43;;
22388;SDS011;11362;48.102;11.620;2022-10-19T16:47:20;80.33;;;42.47;;
22388;SDS011;11362;48.102;11.620;2022-10-19T16:49:45;79.70;;;41.30;;